Time;durP1;ratioP1;P1;durP2;ratioP2;P2;SDS_P1;SDS_P2;PMS_P1;PMS_P2;Temp;Humidity;BMP_temperature;BMP_pressure;BME280_temperature;BME280_humidity;BME280_pressure;Samples;Min_cycle;Max_cycle;Signal;HPM_P1;HPM_P2
2022/03/31 00:01:03;;;;;;;43.42;28.48;;;;;;;;;;5053313;28;20044;-66
2022/03/31 00:03:36;;;;;;;48.67;29.73;;;;;;;;;;5053148;28;20041;-66
2022/03/31 00:06:04;;;;;;;49.70;29.55;;;;;;;;;;5053067;28;20041;-66
2022/03/31 00:08:33;;;;;;;49.63;29.80;;;;;;;;;;5053292;28;20037;-66
2022/03/31 00:11:08;;;;;;;55.50;30.17;;;;;;;;;;5053305;28;20115;-66
2022/03/31 00:13:41;;;;;;;51.05;29.85;;;;;;;;;;5053294;28;20091;-66
2022/03/31 00:16:12;;;;;;;50.45;28.65;;;;;;;;;;5052757;28;20051;-66
2022/03/31 00:18:44;;;;;;;49.00;29.60;;;;;;;;;;5053284;28;20613;-66
2022/03/31 00:21:18;;;;;;;52.90;29.77;;;;;;;;;;5053207;28;20435;-66
2022/03/31 00:23:45;;;;;;;47.53;29.83;;;;;;;;;;5052957;28;20076;-66
2022/03/31 00:26:19;;;;;;;54.10;30.65;;;;;;;;;;5053097;28;20045;-67
2022/03/31 00:28:50;;;;;;;50.70;28.75;;;;;;;;;;5052893;28;20048;-66
2022/03/31 00:31:18;;;;;;;49.20;28.80;;;;;;;;;;5053031;28;20057;-66
2022/03/31 00:33:51;;;;;;;48.95;29.55;;;;;;;;;;5052792;28;20037;-66
2022/03/31 00:36:25;;;;;;;51.72;29.02;;;;;;;;;;5053108;28;20091;-66
2022/03/31 00:41:44;;;;;;;51.28;30.27;;;;;;;;;;5052895;28;20044;-66
2022/03/31 00:44:14;;;;;;;41.95;28.80;;;;;;;;;;5054878;28;20063;-66
2022/03/31 00:46:47;;;;;;;47.60;29.25;;;;;;;;;;5056498;28;20048;-66
2022/03/31 00:49:17;;;;;;;51.13;30.63;;;;;;;;;;5056658;28;20044;-67
2022/03/31 00:51:50;;;;;;;45.20;29.52;;;;;;;;;;5057194;28;20045;-66
2022/03/31 00:54:28;;;;;;;51.33;30.98;;;;;;;;;;5056673;28;20127;-66
2022/03/31 00:56:57;;;;;;;47.65;30.08;;;;;;;;;;5056696;28;20041;-66
2022/03/31 00:59:29;;;;;;;50.97;30.30;;;;;;;;;;5056556;28;20037;-66
2022/03/31 01:02:03;;;;;;;49.90;29.52;;;;;;;;;;5056256;28;20552;-66
2022/03/31 01:04:34;;;;;;;46.78;29.15;;;;;;;;;;5056262;28;20052;-66
2022/03/31 01:07:06;;;;;;;45.20;29.30;;;;;;;;;;5056464;28;20469;-67
2022/03/31 01:09:33;;;;;;;44.85;29.63;;;;;;;;;;5056263;28;20397;-66
2022/03/31 01:12:07;;;;;;;52.60;30.25;;;;;;;;;;5056525;28;20047;-66
2022/03/31 01:14:39;;;;;;;48.77;29.83;;;;;;;;;;5055821;28;20514;-66
2022/03/31 01:17:11;;;;;;;49.83;30.48;;;;;;;;;;5055761;28;20049;-66
2022/03/31 01:19:38;;;;;;;46.90;30.08;;;;;;;;;;5056016;28;20044;-66
2022/03/31 01:22:11;;;;;;;56.05;29.92;;;;;;;;;;5055994;28;20091;-66
2022/03/31 01:24:44;;;;;;;49.67;28.50;;;;;;;;;;5056160;28;20139;-66
2022/03/31 01:27:16;;;;;;;46.22;27.75;;;;;;;;;;5056178;28;20051;-66
2022/03/31 01:29:43;;;;;;;46.90;26.63;;;;;;;;;;5055450;28;20157;-67
2022/03/31 01:32:13;;;;;;;45.97;27.55;;;;;;;;;;5055540;28;20036;-66
2022/03/31 01:34:42;;;;;;;39.95;26.23;;;;;;;;;;5055762;28;20052;-66
2022/03/31 01:37:12;;;;;;;46.28;27.52;;;;;;;;;;5055460;28;20517;-66
2022/03/31 01:39:41;;;;;;;46.08;25.80;;;;;;;;;;5055706;28;20115;-66
2022/03/31 01:42:13;;;;;;;45.55;27.00;;;;;;;;;;5055664;28;20052;-66
2022/03/31 01:44:43;;;;;;;41.63;25.63;;;;;;;;;;5055794;28;20041;-66
2022/03/31 01:47:15;;;;;;;42.50;25.20;;;;;;;;;;5055342;28;20549;-66
2022/03/31 01:49:49;;;;;;;40.67;23.70;;;;;;;;;;5055255;28;20560;-66
2022/03/31 01:52:18;;;;;;;37.30;23.17;;;;;;;;;;5055202;28;20055;-67
2022/03/31 01:58:02;;;;;;;38.13;22.58;;;;;;;;;;4931217;29;20188;-67
2022/03/31 02:00:32;;;;;;;39.83;23.45;;;;;;;;;;4938044;29;20052;-66
2022/03/31 02:03:00;;;;;;;41.47;22.60;;;;;;;;;;4937824;29;20047;-67
2022/03/31 02:05:28;;;;;;;41.53;23.27;;;;;;;;;;4938143;29;20058;-68
2022/03/31 02:07:58;;;;;;;41.08;24.25;;;;;;;;;;4937781;29;20039;-68
2022/03/31 02:10:25;;;;;;;41.63;24.33;;;;;;;;;;4937490;29;20040;-67
2022/03/31 02:12:58;;;;;;;43.45;24.63;;;;;;;;;;4937679;29;20054;-68
2022/03/31 02:15:32;;;;;;;46.97;25.77;;;;;;;;;;4937530;29;20051;-66
2022/03/31 02:18:02;;;;;;;43.10;23.55;;;;;;;;;;4937767;29;20048;-68
2022/03/31 02:20:31;;;;;;;44.83;23.42;;;;;;;;;;4937567;29;20046;-67
2022/03/31 02:23:02;;;;;;;38.38;23.65;;;;;;;;;;4937670;29;20375;-67
2022/03/31 02:25:30;;;;;;;46.10;23.77;;;;;;;;;;4937452;29;20043;-67
2022/03/31 02:28:04;;;;;;;44.45;24.27;;;;;;;;;;4938126;29;20051;-67
2022/03/31 02:30:37;;;;;;;42.20;23.23;;;;;;;;;;4937411;29;20071;-67
2022/03/31 02:33:05;;;;;;;36.97;22.17;;;;;;;;;;4937522;29;20071;-67
2022/03/31 02:35:33;;;;;;;39.17;21.08;;;;;;;;;;4937294;29;20040;-67
2022/03/31 02:38:05;;;;;;;40.55;22.48;;;;;;;;;;4937524;29;20132;-67
2022/03/31 02:40:33;;;;;;;37.00;20.98;;;;;;;;;;4936538;29;20062;-68
2022/03/31 02:43:06;;;;;;;30.73;18.88;;;;;;;;;;4937493;29;20040;-67
2022/03/31 02:45:33;;;;;;;32.42;19.50;;;;;;;;;;4936656;29;20047;-67
2022/03/31 02:48:01;;;;;;;29.55;18.98;;;;;;;;;;4937357;29;20055;-67
2022/03/31 02:50:36;;;;;;;30.80;18.15;;;;;;;;;;4937189;29;20058;-67
2022/03/31 02:56:15;;;;;;;33.88;17.58;;;;;;;;;;4937058;29;20044;-67
2022/03/31 02:58:47;;;;;;;31.95;18.25;;;;;;;;;;4936863;29;20502;-67
2022/03/31 03:01:16;;;;;;;36.15;19.15;;;;;;;;;;4937203;29;20397;-67
2022/03/31 03:03:46;;;;;;;31.65;19.50;;;;;;;;;;4936818;29;20071;-68
2022/03/31 03:06:20;;;;;;;30.65;19.35;;;;;;;;;;4936122;29;20054;-68
2022/03/31 03:08:48;;;;;;;33.75;19.40;;;;;;;;;;4936716;29;20079;-67
2022/03/31 03:11:17;;;;;;;35.20;19.90;;;;;;;;;;4936641;29;20118;-67
2022/03/31 03:13:49;;;;;;;41.10;20.58;;;;;;;;;;4936919;29;20043;-67
2022/03/31 03:16:17;;;;;;;32.78;19.15;;;;;;;;;;4936028;29;20048;-67
2022/03/31 03:18:47;;;;;;;30.63;19.10;;;;;;;;;;4936790;29;20047;-67
2022/03/31 03:21:15;;;;;;;36.15;19.55;;;;;;;;;;4936629;29;20047;-67
2022/03/31 03:23:45;;;;;;;32.33;18.98;;;;;;;;;;4936821;29;20469;-68
2022/03/31 03:26:14;;;;;;;32.10;19.15;;;;;;;;;;4936001;29;20410;-67
2022/03/31 03:28:44;;;;;;;30.00;18.55;;;;;;;;;;4936874;29;20439;-67
2022/03/31 03:31:13;;;;;;;30.67;19.20;;;;;;;;;;4936701;29;20048;-67
2022/03/31 03:33:46;;;;;;;32.08;18.48;;;;;;;;;;4936370;29;20044;-68
2022/03/31 03:36:17;;;;;;;36.20;20.15;;;;;;;;;;4936238;29;20043;-66
2022/03/31 03:38:50;;;;;;;33.17;20.45;;;;;;;;;;4936625;29;20040;-66
2022/03/31 03:41:18;;;;;;;35.45;21.15;;;;;;;;;;4935814;29;20047;-66
2022/03/31 03:43:48;;;;;;;39.13;20.90;;;;;;;;;;4936453;29;20051;-66
2022/03/31 03:46:16;;;;;;;33.78;20.30;;;;;;;;;;4935167;29;20518;-66
2022/03/31 03:48:45;;;;;;;42.00;21.83;;;;;;;;;;4936061;29;20047;-66
2022/03/31 03:51:14;;;;;;;36.00;20.33;;;;;;;;;;4936193;29;20146;-66
2022/03/31 03:53:42;;;;;;;38.83;20.95;;;;;;;;;;4935987;29;20410;-67
2022/03/31 03:56:13;;;;;;;35.63;19.70;;;;;;;;;;4935609;29;20043;-66
2022/03/31 03:58:41;;;;;;;28.05;19.02;;;;;;;;;;4898231;29;20104;-66
2022/03/31 04:01:09;;;;;;;31.27;19.38;;;;;;;;;;4898098;29;20049;-66
2022/03/31 04:03:37;;;;;;;39.10;20.45;;;;;;;;;;4898193;29;20044;-66
2022/03/31 04:06:06;;;;;;;31.45;19.75;;;;;;;;;;4898361;29;20052;-67
2022/03/31 04:08:39;;;;;;;33.47;19.80;;;;;;;;;;4898324;29;20068;-66
2022/03/31 04:11:12;;;;;;;34.55;20.40;;;;;;;;;;4898380;29;20147;-65
2022/03/31 04:13:40;;;;;;;35.42;19.35;;;;;;;;;;4898354;29;20460;-67
2022/03/31 04:16:07;;;;;;;33.95;18.35;;;;;;;;;;4897182;29;20048;-65
2022/03/31 04:18:38;;;;;;;32.33;17.02;;;;;;;;;;4900764;29;20128;-66
2022/03/31 04:21:05;;;;;;;24.38;16.23;;;;;;;;;;4901685;29;20068;-65
2022/03/31 04:23:34;;;;;;;31.10;16.23;;;;;;;;;;4901085;29;20048;-67
2022/03/31 04:26:05;;;;;;;31.20;14.00;;;;;;;;;;4901314;29;20452;-66
2022/03/31 04:28:34;;;;;;;23.05;13.43;;;;;;;;;;4901951;29;20443;-66
2022/03/31 04:31:03;;;;;;;27.02;13.02;;;;;;;;;;4901184;29;20045;-66
2022/03/31 04:33:35;;;;;;;25.50;13.35;;;;;;;;;;4902211;29;20396;-66
2022/03/31 04:36:02;;;;;;;25.63;13.95;;;;;;;;;;4901354;29;20053;-66
2022/03/31 04:38:32;;;;;;;35.22;15.35;;;;;;;;;;4901469;29;20044;-67
2022/03/31 04:41:04;;;;;;;38.58;19.95;;;;;;;;;;4901375;29;20052;-67
2022/03/31 04:43:32;;;;;;;41.65;19.17;;;;;;;;;;4901792;29;20135;-67
2022/03/31 04:46:00;;;;;;;37.25;17.83;;;;;;;;;;4900619;29;20080;-66
2022/03/31 04:48:35;;;;;;;32.67;16.92;;;;;;;;;;4901324;29;20100;-66
2022/03/31 04:51:04;;;;;;;32.33;16.10;;;;;;;;;;4901365;29;20394;-67
2022/03/31 04:53:33;;;;;;;27.98;15.10;;;;;;;;;;4901510;29;20491;-66
2022/03/31 04:56:07;;;;;;;28.17;15.18;;;;;;;;;;4901366;29;20385;-67
2022/03/31 04:58:36;;;;;;;33.30;14.52;;;;;;;;;;4938025;29;20062;-66
2022/03/31 05:01:04;;;;;;;27.63;13.82;;;;;;;;;;4936551;29;20493;-67
2022/03/31 05:03:33;;;;;;;27.27;13.60;;;;;;;;;;4937728;29;20103;-66
2022/03/31 05:06:04;;;;;;;28.10;14.07;;;;;;;;;;4938871;29;20516;-66
2022/03/31 05:08:35;;;;;;;27.80;14.15;;;;;;;;;;4938851;29;20131;-67
2022/03/31 05:11:28;;;;;;;32.50;14.48;;;;;;;;;;4938797;29;20114;-68
2022/03/31 05:13:58;;;;;;;26.38;12.90;;;;;;;;;;4937326;29;20459;-66
2022/03/31 05:16:31;;;;;;;28.52;12.88;;;;;;;;;;4939015;29;20043;-66
2022/03/31 05:18:59;;;;;;;28.08;13.07;;;;;;;;;;4938646;29;20056;-67
2022/03/31 05:21:28;;;;;;;23.13;12.02;;;;;;;;;;4938549;29;20375;-66
2022/03/31 05:23:56;;;;;;;22.95;12.00;;;;;;;;;;4938414;29;20553;-66
2022/03/31 05:26:30;;;;;;;25.08;12.13;;;;;;;;;;4938655;29;20091;-66
2022/03/31 05:28:57;;;;;;;21.00;12.23;;;;;;;;;;4937626;29;20513;-66
2022/03/31 05:31:50;;;;;;;27.80;12.77;;;;;;;;;;4938685;29;20051;-68
2022/03/31 05:34:44;;;;;;;33.67;13.50;;;;;;;;;;4938528;29;20063;-65
2022/03/31 05:37:12;;;;;;;24.63;10.55;;;;;;;;;;4938383;29;20044;-67
2022/03/31 05:39:46;;;;;;;21.60;10.40;;;;;;;;;;4939054;29;20047;-66
2022/03/31 05:42:38;;;;;;;23.88;10.38;;;;;;;;;;4938433;29;20047;-66
2022/03/31 05:45:09;;;;;;;25.83;10.95;;;;;;;;;;4938614;29;20397;-66
2022/03/31 05:47:39;;;;;;;26.67;10.93;;;;;;;;;;4937004;29;20557;-66
2022/03/31 05:50:09;;;;;;;26.02;11.68;;;;;;;;;;4938232;29;20047;-66
2022/03/31 05:52:42;;;;;;;25.75;10.60;;;;;;;;;;4938570;29;20048;-67
2022/03/31 05:55:16;;;;;;;28.13;14.20;;;;;;;;;;4937956;29;20581;-66
2022/03/31 05:57:45;;;;;;;;;;;;;;;;;;4938260;29;20506;-66
2022/03/31 06:00:37;;;;;;;25.23;9.65;;;;;;;;;;4938255;29;20355;-66
2022/03/31 06:03:07;;;;;;;23.25;10.70;;;;;;;;;;4938164;29;20098;-67
2022/03/31 06:05:37;;;;;;;28.50;10.30;;;;;;;;;;4937906;29;20048;-66
2022/03/31 06:08:09;;;;;;;23.75;10.40;;;;;;;;;;4936591;29;20498;-66
2022/03/31 06:10:40;;;;;;;28.00;10.23;;;;;;;;;;4938112;29;20044;-66
2022/03/31 06:13:33;;;;;;;20.38;10.27;;;;;;;;;;4938125;29;20043;-68
2022/03/31 06:16:03;;;;;;;24.50;10.05;;;;;;;;;;4937701;29;20082;-67
2022/03/31 06:18:56;;;;;;;21.67;10.05;;;;;;;;;;4937684;29;20094;-67
2022/03/31 06:21:24;;;;;;;20.88;10.68;;;;;;;;;;4937818;29;20121;-67
2022/03/31 06:27:27;;;;;;;28.10;10.70;;;;;;;;;;4937353;29;20038;-67
2022/03/31 06:29:54;;;;;;;28.80;11.60;;;;;;;;;;4937223;29;20494;-67
2022/03/31 06:35:41;;;;;;;22.70;10.48;;;;;;;;;;4937556;29;20461;-68
2022/03/31 06:38:14;;;;;;;26.20;11.13;;;;;;;;;;4937070;29;20051;-66
2022/03/31 06:41:06;;;;;;;31.58;11.52;;;;;;;;;;4937822;29;20095;-67
2022/03/31 06:43:34;;;;;;;32.13;11.07;;;;;;;;;;4937282;29;20047;-66
2022/03/31 06:46:04;;;;;;;26.98;10.55;;;;;;;;;;4937370;29;20050;-67
2022/03/31 06:48:37;;;;;;;25.13;9.65;;;;;;;;;;4937560;29;20048;-67
2022/03/31 06:51:07;;;;;;;23.48;9.80;;;;;;;;;;4936798;29;20078;-67
2022/03/31 06:53:39;;;;;;;28.55;10.50;;;;;;;;;;4936826;29;20039;-67
2022/03/31 06:56:08;;;;;;;24.65;10.48;;;;;;;;;;4936893;29;20562;-67
2022/03/31 06:58:41;;;;;;;26.13;11.07;;;;;;;;;;4936858;29;20066;-67
2022/03/31 07:01:09;;;;;;;24.60;11.82;;;;;;;;;;4936561;29;20052;-67
2022/03/31 07:04:01;;;;;;;26.10;10.90;;;;;;;;;;4936952;29;20054;-67
2022/03/31 07:06:31;;;;;;;24.25;10.60;;;;;;;;;;4936815;29;20064;-67
2022/03/31 07:08:59;;;;;;;19.95;7.55;;;;;;;;;;4936757;29;20107;-67
2022/03/31 07:11:29;;;;;;;21.15;7.35;;;;;;;;;;4936384;29;20040;-67
2022/03/31 07:14:01;;;;;;;17.48;6.82;;;;;;;;;;4936446;29;20038;-67
2022/03/31 07:16:29;;;;;;;18.15;7.05;;;;;;;;;;4936765;29;20130;-67
2022/03/31 07:19:01;;;;;;;17.17;7.63;;;;;;;;;;4936510;29;20050;-67
2022/03/31 07:21:32;;;;;;;24.08;9.48;;;;;;;;;;4936670;29;20406;-67
2022/03/31 07:24:05;;;;;;;23.63;9.20;;;;;;;;;;4936652;29;20040;-67
2022/03/31 07:26:40;;;;;;;14.60;6.78;;;;;;;;;;4936591;29;20047;-67
2022/03/31 07:31:40;;;;;;;12.70;6.50;;;;;;;;;;4936475;29;19929;-67
2022/03/31 07:34:32;;;;;;;19.83;7.18;;;;;;;;;;4936452;29;20067;-67
2022/03/31 07:37:06;;;;;;;18.17;6.43;;;;;;;;;;4936210;29;20561;-67
2022/03/31 07:39:35;;;;;;;19.83;7.88;;;;;;;;;;4936654;29;20043;-67
2022/03/31 07:42:06;;;;;;;17.10;6.97;;;;;;;;;;4935642;29;20505;-68
2022/03/31 07:44:40;;;;;;;21.08;6.95;;;;;;;;;;4936325;29;20155;-68
2022/03/31 07:47:13;;;;;;;15.98;6.18;;;;;;;;;;4936207;29;20122;-67
2022/03/31 07:49:40;;;;;;;17.40;6.22;;;;;;;;;;4934838;29;20048;-67
2022/03/31 07:52:09;;;;;;;15.40;6.35;;;;;;;;;;4935010;29;20044;-68
2022/03/31 07:55:01;;;;;;;19.50;6.22;;;;;;;;;;4935970;29;20055;-66
2022/03/31 07:57:28;;;;;;;17.35;6.00;;;;;;;;;;4935968;29;20057;-68
2022/03/31 08:00:22;;;;;;;18.20;6.35;;;;;;;;;;4936510;29;20044;-72
2022/03/31 08:02:52;;;;;;;17.50;6.43;;;;;;;;;;4936183;29;20110;-70
2022/03/31 08:05:27;;;;;;;18.23;6.20;;;;;;;;;;4935915;29;20048;-69
2022/03/31 08:07:56;;;;;;;15.38;6.43;;;;;;;;;;4935366;29;20054;-71
2022/03/31 08:10:24;;;;;;;17.70;6.90;;;;;;;;;;4934603;29;20055;-71
2022/03/31 08:12:53;;;;;;;15.52;5.88;;;;;;;;;;4936266;29;20111;-71
2022/03/31 08:15:23;;;;;;;13.85;5.72;;;;;;;;;;4935711;29;20051;-70
2022/03/31 08:17:58;;;;;;;16.42;6.05;;;;;;;;;;4935771;29;20095;-68
2022/03/31 08:20:27;;;;;;;20.38;6.32;;;;;;;;;;4935638;29;20118;-70
2022/03/31 08:23:02;;;;;;;18.45;6.07;;;;;;;;;;4935965;29;20081;-71
2022/03/31 08:25:31;;;;;;;16.75;6.07;;;;;;;;;;4935548;29;20048;-70
2022/03/31 08:28:09;;;;;;;18.15;6.45;;;;;;;;;;5016315;23;20116;-68
2022/03/31 08:30:36;;;;;;;14.55;6.00;;;;;;;;;;5013088;28;20136;-69
2022/03/31 08:33:06;;;;;;;15.90;6.07;;;;;;;;;;5013046;28;20034;-69
2022/03/31 08:35:34;;;;;;;12.88;6.30;;;;;;;;;;5012335;28;20398;-69
2022/03/31 08:38:02;;;;;;;17.95;6.57;;;;;;;;;;5013155;28;20100;-71
2022/03/31 08:40:30;;;;;;;21.73;6.38;;;;;;;;;;5012559;28;20088;-70
2022/03/31 08:43:10;;;;;;;16.25;6.30;;;;;;;;;;5014122;28;20046;-70
2022/03/31 08:45:39;;;;;;;16.90;6.25;;;;;;;;;;5011318;28;20057;-70
2022/03/31 08:51:18;;;;;;;17.55;5.55;;;;;;;;;;5013179;28;20042;-69
2022/03/31 08:54:14;;;;;;;17.88;6.00;;;;;;;;;;5012158;28;20038;-70
2022/03/31 08:56:43;;;;;;;18.10;5.57;;;;;;;;;;5012828;28;20038;-69
2022/03/31 08:59:32;;;;;;;19.75;6.28;;;;;;;;;;5012642;28;20038;-68
2022/03/31 09:02:00;;;;;;;22.25;9.23;;;;;;;;;;5012890;28;20046;-69
2022/03/31 09:04:29;;;;;;;19.10;7.55;;;;;;;;;;5013925;28;20089;-69
2022/03/31 09:07:05;;;;;;;24.20;7.03;;;;;;;;;;5016408;28;20050;-70
2022/03/31 09:09:43;;;;;;;18.92;7.28;;;;;;;;;;5016277;28;20142;-69
2022/03/31 09:12:11;;;;;;;21.40;6.90;;;;;;;;;;5015042;28;20045;-70
2022/03/31 09:14:51;;;;;;;23.25;12.20;;;;;;;;;;5016737;28;20089;-70
2022/03/31 09:17:19;;;;;;;14.95;6.50;;;;;;;;;;5016028;28;20041;-69
2022/03/31 09:19:47;;;;;;;23.85;8.98;;;;;;;;;;5016322;28;20450;-70
2022/03/31 09:22:15;;;;;;;23.65;9.52;;;;;;;;;;5016372;28;20042;-70
2022/03/31 09:24:44;;;;;;;39.15;22.08;;;;;;;;;;5016379;28;20038;-70
2022/03/31 09:27:12;;;;;;;22.65;9.75;;;;;;;;;;5016676;28;20396;-69
2022/03/31 09:29:40;;;;;;;18.73;7.53;;;;;;;;;;5015627;28;20065;-70
2022/03/31 09:32:11;;;;;;;19.33;6.50;;;;;;;;;;5016359;28;20482;-69
2022/03/31 09:34:43;;;;;;;18.33;7.45;;;;;;;;;;5016558;28;20041;-70
2022/03/31 09:37:12;;;;;;;20.92;7.28;;;;;;;;;;5015854;28;20506;-70
2022/03/31 09:39:40;;;;;;;18.17;6.50;;;;;;;;;;5015678;28;20511;-71
2022/03/31 09:42:14;;;;;;;18.65;7.53;;;;;;;;;;5015455;28;20038;-71
2022/03/31 09:44:56;;;;;;;15.38;6.20;;;;;;;;;;5015805;28;20038;-71
2022/03/31 09:47:26;;;;;;;16.00;6.60;;;;;;;;;;5015857;28;20062;-71
2022/03/31 09:49:54;;;;;;;16.38;7.10;;;;;;;;;;4998318;28;20120;-73
2022/03/31 09:52:23;;;;;;;19.63;6.03;;;;;;;;;;5015773;28;20046;-70
2022/03/31 09:54:54;;;;;;;18.45;6.57;;;;;;;;;;4998346;28;20033;-69
2022/03/31 09:57:27;;;;;;;18.48;6.18;;;;;;;;;;4983646;28;20129;-68
2022/03/31 10:00:03;;;;;;;21.95;5.63;;;;;;;;;;5014206;28;20038;-68
2022/03/31 10:02:40;;;;;;;19.23;5.57;;;;;;;;;;5013735;28;20057;-67
2022/03/31 10:05:29;;;;;;;20.73;7.30;;;;;;;;;;5015780;28;20388;-68
2022/03/31 10:07:57;;;;;;;16.88;5.65;;;;;;;;;;5015211;28;20038;-68
2022/03/31 10:10:27;;;;;;;21.70;7.50;;;;;;;;;;5014977;28;20049;-67
2022/03/31 10:13:01;;;;;;;18.58;6.13;;;;;;;;;;5015243;28;20057;-67
2022/03/31 10:15:30;;;;;;;16.50;5.70;;;;;;;;;;5009150;28;20540;-67
2022/03/31 10:17:59;;;;;;;18.02;5.57;;;;;;;;;;5015297;28;20557;-67
2022/03/31 10:20:30;;;;;;;17.02;5.57;;;;;;;;;;5014416;28;20041;-68
2022/03/31 10:25:48;;;;;;;16.17;5.78;;;;;;;;;;5013096;28;20515;-67
2022/03/31 10:28:16;;;;;;;16.95;5.28;;;;;;;;;;5015590;28;20052;-68
2022/03/31 10:30:55;;;;;;;21.85;6.18;;;;;;;;;;5034381;28;20046;-68
2022/03/31 10:33:31;;;;;;;20.55;6.68;;;;;;;;;;5021970;28;20046;-68
2022/03/31 10:36:10;;;;;;;19.67;6.30;;;;;;;;;;5014458;28;20500;-67
2022/03/31 10:38:39;;;;;;;21.15;6.55;;;;;;;;;;5013747;28;20400;-68
2022/03/31 10:41:11;;;;;;;30.80;6.80;;;;;;;;;;5014924;28;20038;-68
2022/03/31 10:43:47;;;;;;;27.73;6.43;;;;;;;;;;5014677;28;20070;-68
2022/03/31 10:46:18;;;;;;;18.15;5.78;;;;;;;;;;5014913;28;20045;-68
2022/03/31 10:48:51;;;;;;;20.67;5.40;;;;;;;;;;5014349;28;20065;-68
2022/03/31 10:51:19;;;;;;;23.92;6.03;;;;;;;;;;5014423;28;20443;-68
2022/03/31 10:53:51;;;;;;;23.63;6.32;;;;;;;;;;5014763;28;20041;-69
2022/03/31 10:56:27;;;;;;;24.05;6.90;;;;;;;;;;5014457;28;20377;-68
2022/03/31 10:58:59;;;;;;;23.67;6.82;;;;;;;;;;5014543;28;20041;-68
2022/03/31 11:01:49;;;;;;;20.55;7.05;;;;;;;;;;5014482;28;20053;-68
2022/03/31 11:04:17;;;;;;;24.30;6.07;;;;;;;;;;4997234;28;20060;-68
2022/03/31 11:06:49;;;;;;;27.00;7.43;;;;;;;;;;5014177;28;20038;-69
2022/03/31 11:09:27;;;;;;;20.35;7.03;;;;;;;;;;5014705;28;20074;-68
2022/03/31 11:11:59;;;;;;;24.67;6.47;;;;;;;;;;5014242;28;20041;-66
2022/03/31 11:14:28;;;;;;;21.70;5.65;;;;;;;;;;5013994;28;20462;-67
2022/03/31 11:17:00;;;;;;;25.27;5.50;;;;;;;;;;5014254;28;20042;-66
2022/03/31 11:19:36;;;;;;;26.02;5.55;;;;;;;;;;5014249;28;20042;-66
2022/03/31 11:22:06;;;;;;;20.00;5.22;;;;;;;;;;5014104;28;20053;-67
2022/03/31 11:24:40;;;;;;;25.30;5.50;;;;;;;;;;5014150;28;20056;-67
2022/03/31 11:27:09;;;;;;;28.23;5.43;;;;;;;;;;5013646;28;20120;-67
2022/03/31 11:29:37;;;;;;;23.73;5.95;;;;;;;;;;5013715;28;20058;-67
2022/03/31 11:32:11;;;;;;;21.95;6.13;;;;;;;;;;5013972;28;20492;-66
2022/03/31 11:34:50;;;;;;;25.33;6.00;;;;;;;;;;5014240;28;20404;-66
2022/03/31 11:37:18;;;;;;;15.85;4.70;;;;;;;;;;5014188;28;20504;-66
2022/03/31 11:39:49;;;;;;;19.55;5.82;;;;;;;;;;5013498;28;20046;-66
2022/03/31 11:42:28;;;;;;;21.17;5.57;;;;;;;;;;5013816;28;20065;-66
2022/03/31 11:44:56;;;;;;;;;;;;;;;;;;5014279;28;20046;-66
2022/03/31 11:47:27;;;;;;;20.30;5.25;;;;;;;;;;5013438;28;19935;-66
2022/03/31 11:50:01;;;;;;;24.02;6.13;;;;;;;;;;5013971;28;20442;-66
2022/03/31 11:52:30;;;;;;;26.20;5.90;;;;;;;;;;5014061;28;20093;-66
2022/03/31 11:55:02;;;;;;;63.08;8.32;;;;;;;;;;5013787;28;20042;-67
2022/03/31 11:57:36;;;;;;;23.35;5.80;;;;;;;;;;5013786;28;20045;-67
2022/03/31 12:00:08;;;;;;;29.40;5.78;;;;;;;;;;5013642;28;20061;-67
2022/03/31 12:02:38;;;;;;;22.15;7.53;;;;;;;;;;5013767;28;20048;-66
2022/03/31 12:05:16;;;;;;;21.83;4.88;;;;;;;;;;5013473;28;20464;-66
2022/03/31 12:07:46;;;;;;;17.17;4.93;;;;;;;;;;5013487;28;20057;-66
2022/03/31 12:10:16;;;;;;;20.63;5.20;;;;;;;;;;5013441;28;20150;-67
2022/03/31 12:12:47;;;;;;;26.08;6.25;;;;;;;;;;5013037;28;20056;-66
2022/03/31 12:15:21;;;;;;;20.17;6.10;;;;;;;;;;5013512;28;20062;-67
2022/03/31 12:18:22;;;;;;;21.17;6.03;;;;;;;;;;5013394;28;20045;-67
2022/03/31 12:20:58;;;;;;;19.60;5.57;;;;;;;;;;4971308;28;20291;-67
2022/03/31 12:23:54;;;;;;;21.23;5.80;;;;;;;;;;5013479;28;20074;-67
2022/03/31 12:27:05;;;;;;;19.52;5.13;;;;;;;;;;5013368;28;20060;-67
2022/03/31 12:29:38;;;;;;;22.65;6.30;;;;;;;;;;5013319;28;20105;-66
2022/03/31 12:32:08;;;;;;;19.77;5.43;;;;;;;;;;5013148;28;20049;-67
2022/03/31 12:34:40;;;;;;;21.08;5.32;;;;;;;;;;5013480;28;20132;-66
2022/03/31 12:37:08;;;;;;;27.35;6.05;;;;;;;;;;5012278;28;20542;-67
2022/03/31 12:39:43;;;;;;;17.73;6.18;;;;;;;;;;5013346;28;20038;-67
2022/03/31 12:42:14;;;;;;;21.20;5.93;;;;;;;;;;5016975;28;20596;-67
2022/03/31 12:44:42;;;;;;;17.83;5.25;;;;;;;;;;5016719;28;20464;-67
2022/03/31 12:47:10;;;;;;;18.05;5.65;;;;;;;;;;5016895;28;20427;-67
2022/03/31 12:49:42;;;;;;;44.35;7.18;;;;;;;;;;5016809;28;20041;-67
2022/03/31 12:52:14;;;;;;;18.63;5.30;;;;;;;;;;5067651;23;20065;-66
2022/03/31 12:55:07;;;;;;;17.80;5.82;;;;;;;;;;5036326;28;20065;-67
2022/03/31 12:57:35;;;;;;;21.25;5.78;;;;;;;;;;5036266;28;20128;-67
2022/03/31 13:00:12;;;;;;;25.13;7.20;;;;;;;;;;5036242;28;20091;-67
2022/03/31 13:02:43;;;;;;;15.63;5.20;;;;;;;;;;5036389;28;20041;-67
2022/03/31 13:05:17;;;;;;;23.20;8.63;;;;;;;;;;5036294;28;20117;-68
2022/03/31 13:07:45;;;;;;;25.33;10.23;;;;;;;;;;5036568;28;20103;-67
2022/03/31 13:10:14;;;;;;;25.48;7.82;;;;;;;;;;5036325;28;20096;-67
2022/03/31 13:12:41;;;;;;;23.45;6.35;;;;;;;;;;5036746;28;20125;-66
2022/03/31 13:15:12;;;;;;;17.48;5.53;;;;;;;;;;5035864;28;20045;-67
2022/03/31 13:17:42;;;;;;;21.35;6.55;;;;;;;;;;5036104;28;20041;-67
2022/03/31 13:20:16;;;;;;;18.27;6.28;;;;;;;;;;5036118;28;20050;-66
2022/03/31 13:22:43;;;;;;;23.02;7.80;;;;;;;;;;5035920;28;20048;-67
2022/03/31 13:25:11;;;;;;;39.22;10.20;;;;;;;;;;5036236;28;20124;-67
2022/03/31 13:27:39;;;;;;;35.70;11.73;;;;;;;;;;5036213;28;20045;-67
2022/03/31 13:30:32;;;;;;;25.67;10.98;;;;;;;;;;5035992;28;20076;-67
2022/03/31 13:39:37;;;;;;;28.10;11.27;;;;;;;;;;5035962;28;20080;-67
2022/03/31 13:42:31;;;;;;;26.77;7.20;;;;;;;;;;5035396;28;20049;-67
2022/03/31 13:45:02;;;;;;;21.42;8.25;;;;;;;;;;5035470;28;20046;-68
2022/03/31 13:47:31;;;;;;;24.40;7.63;;;;;;;;;;5035638;28;20088;-67
2022/03/31 13:50:00;;;;;;;29.70;6.68;;;;;;;;;;5035478;28;20038;-71
2022/03/31 13:52:27;;;;;;;19.77;7.65;;;;;;;;;;5035004;28;20076;-72
2022/03/31 13:54:57;;;;;;;22.98;6.78;;;;;;;;;;5035361;28;20039;-72
2022/03/31 14:03:12;;;;;;;28.02;11.45;;;;;;;;;;5001914;28;20069;-67
2022/03/31 14:05:46;;;;;;;42.65;12.10;;;;;;;;;;5035279;28;20065;-66
2022/03/31 14:08:14;;;;;;;37.65;16.08;;;;;;;;;;5034154;28;20488;-67
2022/03/31 14:10:41;;;;;;;34.30;11.75;;;;;;;;;;5034172;28;20045;-67
2022/03/31 14:13:13;;;;;;;34.72;12.80;;;;;;;;;;5035482;28;20077;-67
2022/03/31 14:15:41;;;;;;;38.88;14.50;;;;;;;;;;5035402;28;20395;-67
2022/03/31 14:18:14;;;;;;;28.40;8.00;;;;;;;;;;5035012;28;20391;-67
2022/03/31 14:20:46;;;;;;;24.67;7.72;;;;;;;;;;5034859;28;20151;-67
2022/03/31 14:23:14;;;;;;;36.15;10.35;;;;;;;;;;5035298;28;20132;-67
2022/03/31 14:25:44;;;;;;;33.90;9.18;;;;;;;;;;5034917;28;20037;-67
2022/03/31 14:28:14;;;;;;;26.88;8.20;;;;;;;;;;5034908;28;20046;-67
2022/03/31 14:30:47;;;;;;;22.90;7.70;;;;;;;;;;5034662;28;20098;-67
2022/03/31 14:33:25;;;;;;;34.58;10.38;;;;;;;;;;5034644;28;20041;-67
2022/03/31 14:35:54;;;;;;;32.47;9.60;;;;;;;;;;5034271;28;20430;-67
2022/03/31 14:38:25;;;;;;;32.70;9.40;;;;;;;;;;5035190;28;20042;-68
2022/03/31 14:41:12;;;;;;;33.15;10.65;;;;;;;;;;5034763;28;20072;-66
2022/03/31 14:43:42;;;;;;;37.67;10.75;;;;;;;;;;5034532;28;20045;-68
2022/03/31 14:46:12;;;;;;;36.05;12.10;;;;;;;;;;5034413;28;20056;-68
2022/03/31 14:48:40;;;;;;;36.72;10.40;;;;;;;;;;5062479;22;20058;-68
2022/03/31 14:51:11;;;;;;;37.75;11.82;;;;;;;;;;4994790;28;20046;-69
2022/03/31 14:53:38;;;;;;;37.78;11.90;;;;;;;;;;4995158;28;20488;-68
2022/03/31 14:56:07;;;;;;;34.58;12.63;;;;;;;;;;4995137;28;20141;-68
2022/03/31 14:58:35;;;;;;;33.65;11.98;;;;;;;;;;4994510;28;20045;-68
2022/03/31 15:01:03;;;;;;;29.98;9.20;;;;;;;;;;4994702;28;20042;-68
2022/03/31 15:03:31;;;;;;;29.30;9.20;;;;;;;;;;4993900;28;20046;-68
2022/03/31 15:05:59;;;;;;;24.92;9.27;;;;;;;;;;4994648;28;20045;-68
2022/03/31 15:08:26;;;;;;;25.48;7.40;;;;;;;;;;4995006;28;20046;-68
2022/03/31 15:16:26;;;;;;;27.33;6.93;;;;;;;;;;4994147;28;20050;-68
2022/03/31 15:18:53;;;;;;;29.92;7.60;;;;;;;;;;4994888;28;20046;-68
2022/03/31 15:21:21;;;;;;;19.30;7.43;;;;;;;;;;4994189;28;20038;-68
2022/03/31 15:23:48;;;;;;;27.88;8.45;;;;;;;;;;4994132;28;20089;-68
2022/03/31 15:26:16;;;;;;;25.92;7.85;;;;;;;;;;4994572;28;20378;-68
2022/03/31 15:28:43;;;;;;;23.77;7.95;;;;;;;;;;4994429;28;20447;-68
2022/03/31 15:31:11;;;;;;;24.65;6.72;;;;;;;;;;4994249;28;20057;-68
2022/03/31 15:33:39;;;;;;;30.35;8.13;;;;;;;;;;4994366;28;20065;-68